Time;durP1;ratioP1;P1;durP2;ratioP2;P2;SDS_P1;SDS_P2;PMS_P1;PMS_P2;Temp;Humidity;BMP_temperature;BMP_pressure;BME280_temperature;BME280_humidity;BME280_pressure;Samples;Min_cycle;Max_cycle;Signal;HPM_P1;HPM_P2
2022/08/25 00:01:13;;;;;;;9.43;4.07;;;25.60;99.90;;;;;;5055179;28;20021;-80
2022/08/25 00:03:40;;;;;;;5.93;3.70;;;25.70;99.90;;;;;;5041174;28;20040;-82
2022/08/25 00:06:07;;;;;;;6.57;3.55;;;25.70;99.90;;;;;;5054049;28;20473;-82
2022/08/25 00:08:36;;;;;;;6.68;3.72;;;25.80;99.90;;;;;;5054574;28;20032;-82
2022/08/25 00:11:07;;;;;;;12.57;3.70;;;25.70;99.90;;;;;;5054783;28;20029;-82
2022/08/25 00:13:33;;;;;;;10.68;3.67;;;25.60;99.90;;;;;;5054822;28;20028;-80
2022/08/25 00:15:59;;;;;;;10.23;3.83;;;25.60;99.90;;;;;;5054804;28;20025;-83
2022/08/25 00:18:25;;;;;;;8.35;4.47;;;25.70;99.90;;;;;;5055065;28;20115;-83
2022/08/25 00:20:51;;;;;;;6.97;4.05;;;25.70;99.90;;;;;;5054507;28;20100;-83
2022/08/25 00:23:18;;;;;;;9.50;3.97;;;25.70;99.90;;;;;;5054825;28;20068;-82
2022/08/25 00:25:43;;;;;;;10.13;4.63;;;25.60;99.90;;;;;;5053008;28;20113;-81
2022/08/25 00:28:10;;;;;;;8.88;4.55;;;25.50;99.90;;;;;;5054562;28;20099;-82
2022/08/25 00:30:37;;;;;;;6.20;4.22;;;25.60;99.90;;;;;;5054707;28;20025;-81
2022/08/25 00:33:03;;;;;;;6.82;4.20;;;25.40;99.90;;;;;;5040759;28;20484;-83
2022/08/25 00:35:29;;;;;;;11.20;4.30;;;25.30;99.90;;;;;;5054653;28;20041;-82
2022/08/25 00:37:55;;;;;;;11.30;4.03;;;25.40;99.90;;;;;;5054296;28;20021;-82
2022/08/25 00:40:23;;;;;;;5.72;3.75;;;25.40;99.90;;;;;;5054110;28;20029;-82
2022/08/25 00:42:49;;;;;;;12.20;5.03;;;25.50;99.90;;;;;;5053060;28;20474;-82
2022/08/25 00:45:15;;;;;;;7.10;4.53;;;25.70;99.90;;;;;;5054262;28;20027;-79
2022/08/25 00:47:41;;;;;;;4.82;4.07;;;25.70;99.90;;;;;;5054276;28;20366;-79
2022/08/25 00:50:09;;;;;;;6.47;4.55;;;25.90;99.90;;;;;;5054200;28;20119;-80
2022/08/25 00:52:42;;;;;;;8.20;3.88;;;25.40;99.90;;;;;;5054209;28;20116;-80
2022/08/25 00:55:18;;;;;;;7.60;4.50;;;25.40;99.90;;;;;;5053692;28;20025;-83
2022/08/25 00:58:12;;;;;;;5.65;4.07;;;25.50;99.90;;;;;;5053944;28;20059;-82
2022/08/25 01:00:43;;;;;;;7.18;4.20;;;25.50;99.90;;;;;;5053989;28;20029;-82
2022/08/25 01:03:10;;;;;;;8.05;4.38;;;25.20;99.90;;;;;;5054078;28;20032;-83
2022/08/25 01:05:38;;;;;;;6.63;4.45;;;25.30;99.90;;;;;;5069399;28;20477;-83
2022/08/25 01:08:05;;;;;;;9.57;4.45;;;25.40;99.90;;;;;;5053414;28;20386;-82
2022/08/25 01:10:34;;;;;;;9.65;5.05;;;25.40;99.90;;;;;;5053908;28;20080;-83
2022/08/25 01:13:05;;;;;;;6.38;4.13;;;25.20;99.90;;;;;;5053709;28;20013;-83
2022/08/25 01:15:33;;;;;;;13.75;4.88;;;25.00;99.90;;;;;;5052516;28;20072;-83
2022/08/25 01:17:59;;;;;;;8.02;5.35;;;25.00;99.90;;;;;;5053631;28;20025;-82
2022/08/25 01:20:28;;;;;;;10.57;4.57;;;24.60;99.90;;;;;;5053668;28;20378;-82
2022/08/25 01:22:55;;;;;;;7.93;4.45;;;24.80;99.90;;;;;;5052189;28;20484;-82
2022/08/25 01:25:36;;;;;;;8.73;3.97;;;24.80;99.90;;;;;;5053333;28;20059;-83
2022/08/25 01:28:03;;;;;;;8.80;5.03;;;25.00;99.90;;;;;;5052219;28;20032;-83
2022/08/25 01:30:29;;;;;;;9.88;5.00;;;25.10;99.90;;;;;;5052368;28;20473;-83
2022/08/25 01:32:55;;;;;;;8.73;5.00;;;25.20;99.90;;;;;;5053296;28;20071;-80
2022/08/25 01:35:21;;;;;;;9.75;5.55;;;25.10;99.90;;;;;;5053433;28;20097;-80
2022/08/25 01:37:47;;;;;;;11.40;6.13;;;24.90;99.90;;;;;;5052653;28;20058;-80
2022/08/25 01:40:13;;;;;;;11.57;6.38;;;24.60;99.90;;;;;;5053446;28;20021;-80
2022/08/25 01:42:42;;;;;;;7.10;5.97;;;24.40;99.90;;;;;;5051851;28;20480;-80
2022/08/25 01:45:11;;;;;;;11.20;5.70;;;24.40;99.90;;;;;;5052209;28;20020;-80
2022/08/25 01:47:37;;;;;;;11.35;5.93;;;24.20;99.90;;;;;;5051844;28;20118;-80
2022/08/25 01:50:05;;;;;;;10.13;5.95;;;24.30;99.90;;;;;;5053354;28;20530;-79
2022/08/25 01:53:06;;;;;;;9.35;6.65;;;24.40;99.90;;;;;;5052736;28;20032;-80
2022/08/25 01:55:50;;;;;;;7.13;6.35;;;24.00;99.90;;;;;;5044034;28;20516;-81
2022/08/25 01:58:29;;;;;;;10.70;6.70;;;23.90;99.90;;;;;;5052950;28;20033;-79
2022/08/25 02:00:57;;;;;;;9.07;6.78;;;23.80;99.90;;;;;;5052250;28;20035;-79
2022/08/25 02:03:25;;;;;;;10.25;6.10;;;23.70;99.90;;;;;;5052966;28;20531;-79
2022/08/25 02:05:52;;;;;;;11.55;6.05;;;23.70;99.90;;;;;;5052469;28;20052;-80
2022/08/25 02:08:18;;;;;;;11.88;6.88;;;23.60;99.90;;;;;;5053130;28;20025;-81
2022/08/25 02:10:45;;;;;;;8.68;6.28;;;23.80;99.90;;;;;;5051643;28;20064;-81
2022/08/25 02:13:12;;;;;;;16.20;6.70;;;23.80;99.90;;;;;;5051469;28;20111;-82
2022/08/25 02:15:43;;;;;;;8.48;6.45;;;24.30;99.90;;;;;;5052767;28;20029;-79
2022/08/25 02:18:10;;;;;;;13.02;6.53;;;24.40;99.90;;;;;;5052751;28;20025;-78
2022/08/25 02:20:36;;;;;;;15.52;6.25;;;24.30;99.90;;;;;;5051051;28;20025;-82
2022/08/25 02:23:03;;;;;;;13.73;7.30;;;24.30;99.90;;;;;;5051029;28;20032;-78
2022/08/25 02:25:30;;;;;;;10.48;6.85;;;24.40;99.90;;;;;;5052332;28;20025;-78
2022/08/25 02:27:56;;;;;;;10.80;7.15;;;24.30;99.90;;;;;;5052305;28;20021;-79
2022/08/25 02:30:22;;;;;;;10.43;6.60;;;24.30;99.90;;;;;;5034738;28;20460;-81
2022/08/25 02:32:48;;;;;;;10.90;6.35;;;24.00;99.90;;;;;;5052441;28;20512;-80
2022/08/25 02:35:14;;;;;;;9.80;6.22;;;23.50;99.90;;;;;;5050931;28;20029;-79
2022/08/25 02:37:40;;;;;;;6.80;6.00;;;23.30;99.90;;;;;;5052710;28;20032;-79
2022/08/25 02:40:06;;;;;;;6.75;6.03;;;23.30;99.90;;;;;;5050917;28;20025;-78
2022/08/25 02:42:32;;;;;;;8.90;6.40;;;23.70;99.90;;;;;;5056445;28;20029;-78
2022/08/25 02:44:58;;;;;;;8.15;6.80;;;24.00;99.90;;;;;;5052478;28;20382;-79
2022/08/25 02:47:24;;;;;;;11.43;6.80;;;24.20;99.90;;;;;;5052331;28;20121;-79
2022/08/25 02:49:51;;;;;;;9.43;6.07;;;23.90;99.90;;;;;;5052125;28;20421;-79
2022/08/25 02:52:17;;;;;;;7.90;5.97;;;23.80;99.90;;;;;;5052279;28;20021;-79
2022/08/25 02:54:43;;;;;;;10.02;6.55;;;23.80;99.90;;;;;;5051259;28;20474;-79
2022/08/25 02:57:10;;;;;;;10.85;6.15;;;23.70;99.90;;;;;;5051634;28;20052;-79
2022/08/25 02:59:37;;;;;;;11.63;7.00;;;23.50;99.90;;;;;;5051433;28;20380;-79
2022/08/25 03:02:04;;;;;;;6.80;6.10;;;23.60;99.90;;;;;;5051916;28;20028;-79
2022/08/25 03:04:31;;;;;;;12.45;5.68;;;23.50;99.90;;;;;;5052073;28;20036;-79
2022/08/25 03:06:57;;;;;;;8.93;6.53;;;23.30;99.90;;;;;;5052389;28;20029;-80
2022/08/25 03:09:25;;;;;;;9.70;6.63;;;23.30;99.90;;;;;;5052060;28;20047;-80
2022/08/25 03:11:51;;;;;;;11.13;6.45;;;23.20;99.90;;;;;;5052125;28;20071;-79
2022/08/25 03:14:17;;;;;;;6.80;5.90;;;23.20;99.90;;;;;;5054151;28;20025;-80
2022/08/25 03:16:43;;;;;;;11.38;6.50;;;23.20;99.90;;;;;;5056109;28;20025;-79
2022/08/25 03:19:09;;;;;;;7.68;6.35;;;23.20;99.90;;;;;;5055515;28;20090;-79
2022/08/25 03:21:37;;;;;;;11.60;7.07;;;23.30;99.90;;;;;;5054740;28;20025;-80
2022/08/25 03:24:03;;;;;;;10.45;6.70;;;23.40;99.90;;;;;;5055646;28;20024;-80
2022/08/25 03:29:14;;;;;;;8.90;6.03;;;23.20;99.90;;;;;;5055660;28;20056;-80
2022/08/25 03:31:43;;;;;;;7.90;6.38;;;23.30;99.90;;;;;;5055597;28;20139;-80
2022/08/25 03:34:10;;;;;;;14.15;6.78;;;23.30;99.90;;;;;;5070884;28;20025;-79
2022/08/25 03:36:36;;;;;;;15.18;6.90;;;23.40;99.90;;;;;;5055629;28;20025;-80
2022/08/25 03:39:03;;;;;;;8.70;7.05;;;23.50;99.90;;;;;;5055464;28;20017;-80
2022/08/25 03:41:31;;;;;;;10.35;6.65;;;23.30;99.90;;;;;;5054302;28;20032;-80
2022/08/25 03:43:58;;;;;;;8.90;6.93;;;23.30;99.90;;;;;;5055662;28;20029;-79
2022/08/25 03:46:30;;;;;;;9.50;7.30;;;23.20;99.90;;;;;;5055644;28;20029;-80
2022/08/25 03:49:00;;;;;;;13.63;7.53;;;23.00;99.90;;;;;;5041451;28;20021;-81
2022/08/25 03:51:29;;;;;;;9.18;7.13;;;22.90;99.90;;;;;;5055555;28;20488;-80
2022/08/25 03:53:56;;;;;;;8.82;6.43;;;22.80;99.90;;;;;;5054987;28;20548;-81
2022/08/25 03:56:22;;;;;;;11.15;7.28;;;22.80;99.90;;;;;;5055080;28;20033;-81
2022/08/25 03:58:48;;;;;;;10.40;6.60;;;22.80;99.90;;;;;;5055017;28;20025;-80
2022/08/25 04:01:14;;;;;;;13.75;7.22;;;22.60;99.90;;;;;;5055126;28;20495;-81
2022/08/25 04:03:40;;;;;;;18.83;7.32;;;22.70;99.90;;;;;;5054660;28;20111;-80
2022/08/25 04:06:07;;;;;;;13.40;6.28;;;22.50;99.90;;;;;;5055394;28;20017;-81
2022/08/25 04:08:34;;;;;;;13.00;6.38;;;22.40;99.90;;;;;;5053816;28;20077;-80
2022/08/25 04:11:06;;;;;;;7.80;5.70;;;22.50;99.90;;;;;;5070486;28;20085;-80
2022/08/25 04:13:32;;;;;;;8.57;6.45;;;22.50;99.90;;;;;;5054775;28;20070;-83
2022/08/25 04:15:57;;;;;;;11.43;5.72;;;22.30;99.90;;;;;;5070333;28;20033;-82
2022/08/25 04:18:23;;;;;;;12.18;6.55;;;22.20;99.90;;;;;;5054698;28;20021;-80
2022/08/25 04:20:49;;;;;;;8.63;5.35;;;22.30;99.90;;;;;;5054652;28;20120;-80
2022/08/25 04:23:15;;;;;;;9.55;6.05;;;22.40;99.90;;;;;;5054836;28;20078;-83
2022/08/25 04:25:41;;;;;;;13.52;6.25;;;22.40;99.90;;;;;;5052693;28;20032;-82
2022/08/25 04:28:08;;;;;;;8.57;5.43;;;22.20;99.90;;;;;;5054654;28;20036;-82
2022/08/25 04:30:35;;;;;;;10.20;6.15;;;22.30;99.90;;;;;;5054338;28;20101;-82
2022/08/25 04:33:01;;;;;;;12.88;6.60;;;22.30;99.90;;;;;;5054508;28;20078;-82
2022/08/25 04:35:27;;;;;;;14.30;6.40;;;22.30;99.90;;;;;;5054365;28;20032;-82
2022/08/25 04:37:52;;;;;;;15.18;5.60;;;22.30;99.90;;;;;;5054471;28;20031;-82
2022/08/25 04:40:19;;;;;;;13.23;6.18;;;22.20;99.90;;;;;;5053968;28;20382;-82
2022/08/25 04:42:45;;;;;;;14.07;6.47;;;22.20;99.90;;;;;;5054195;28;20021;-82
2022/08/25 04:45:11;;;;;;;16.38;5.65;;;22.00;99.90;;;;;;5053743;28;20029;-81
2022/08/25 04:47:39;;;;;;;10.18;5.70;;;21.90;99.90;;;;;;5054338;28;20424;-83
2022/08/25 04:50:06;;;;;;;12.60;6.40;;;21.90;99.90;;;;;;5053897;28;20049;-83
2022/08/25 04:52:32;;;;;;;13.45;5.55;;;22.20;99.90;;;;;;5054099;28;20025;-82
2022/08/25 04:54:59;;;;;;;15.55;6.10;;;22.20;99.90;;;;;;5053975;28;20500;-81
2022/08/25 04:57:25;;;;;;;10.35;5.88;;;22.10;99.90;;;;;;5054249;28;20155;-82
2022/08/25 04:59:51;;;;;;;17.30;6.20;;;21.90;99.90;;;;;;5052342;28;20029;-82
2022/08/25 05:02:16;;;;;;;14.07;7.03;;;22.00;99.90;;;;;;5053927;28;20032;-81
2022/08/25 05:04:42;;;;;;;12.45;6.97;;;22.10;99.90;;;;;;5052759;28;20020;-82
2022/08/25 05:07:08;;;;;;;17.55;6.53;;;21.90;99.90;;;;;;5053882;28;20458;-82
2022/08/25 05:09:34;;;;;;;17.13;6.57;;;21.90;99.90;;;;;;5052879;28;20037;-82
2022/08/25 05:12:01;;;;;;;25.65;7.55;;;22.00;99.90;;;;;;5053440;28;20543;-82
2022/08/25 05:14:27;;;;;;;22.23;6.35;;;21.80;99.90;;;;;;5053693;28;20170;-82
2022/08/25 05:16:54;;;;;;;23.60;7.07;;;22.00;99.90;;;;;;5052289;28;20052;-82
2022/08/25 05:19:22;;;;;;;19.63;7.47;;;22.10;99.90;;;;;;5053654;28;20029;-82
2022/08/25 05:21:48;;;;;;;20.42;7.03;;;22.30;99.90;;;;;;5053915;28;20071;-82
2022/08/25 05:24:14;;;;;;;22.00;6.55;;;22.40;99.90;;;;;;5053549;28;20420;-83
2022/08/25 05:26:40;;;;;;;16.10;5.50;;;22.60;99.90;;;;;;5051990;28;20036;-83
2022/08/25 05:29:06;;;;;;;23.60;6.68;;;22.60;99.90;;;;;;5053050;28;20037;-83
2022/08/25 05:31:33;;;;;;;15.82;5.70;;;22.90;99.90;;;;;;5053541;28;20029;-82
2022/08/25 05:34:07;;;;;;;17.13;6.05;;;22.80;99.90;;;;;;5053589;28;20542;-80
2022/08/25 05:36:34;;;;;;;12.55;5.63;;;22.80;99.90;;;;;;5052465;28;20066;-80
2022/08/25 05:39:00;;;;;;;11.18;6.32;;;22.80;99.90;;;;;;5053141;28;20021;-77
2022/08/25 05:41:29;;;;;;;11.43;6.03;;;22.90;99.90;;;;;;5047075;28;20021;-78
2022/08/25 05:43:55;;;;;;;14.30;6.22;;;23.00;99.90;;;;;;5050209;28;20054;-77
2022/08/25 05:46:22;;;;;;;13.75;6.53;;;22.90;99.90;;;;;;5050146;28;20116;-77
2022/08/25 05:48:48;;;;;;;19.52;6.53;;;22.80;99.90;;;;;;5050952;28;20396;-78
2022/08/25 05:51:15;;;;;;;18.40;6.55;;;22.90;99.90;;;;;;5052025;28;20033;-74
2022/08/25 05:53:44;;;;;;;12.05;5.93;;;23.10;99.90;;;;;;5050017;28;20094;-75
2022/08/25 05:56:10;;;;;;;9.93;5.78;;;23.20;99.90;;;;;;5051788;28;20035;-74
2022/08/25 05:58:37;;;;;;;18.35;5.65;;;22.80;99.90;;;;;;5051818;28;20058;-75
2022/08/25 06:03:49;;;;;;;12.77;5.70;;;23.10;99.90;;;;;;5048687;28;20060;-73
2022/08/25 06:06:15;;;;;;;16.02;6.30;;;23.40;99.90;;;;;;5051468;28;20048;-73
2022/08/25 06:08:43;;;;;;;15.35;5.97;;;23.30;99.90;;;;;;5048514;28;20036;-74
2022/08/25 06:11:10;;;;;;;16.23;6.32;;;23.10;99.90;;;;;;5047356;28;20047;-73
2022/08/25 06:13:35;;;;;;;11.00;5.68;;;23.00;99.90;;;;;;5048221;28;20087;-73
2022/08/25 06:16:01;;;;;;;8.23;5.38;;;23.30;99.90;;;;;;5051788;28;20025;-73
2022/08/25 06:18:27;;;;;;;25.42;6.10;;;23.30;99.90;;;;;;5051569;28;20069;-73
2022/08/25 06:20:53;;;;;;;17.60;5.80;;;23.50;99.90;;;;;;5051312;28;20017;-73
2022/08/25 06:23:19;;;;;;;18.15;6.15;;;23.50;99.90;;;;;;5050416;28;20389;-73
2022/08/25 06:25:52;;;;;;;13.82;6.38;;;23.40;99.90;;;;;;5048887;28;20036;-75
2022/08/25 06:28:19;;;;;;;15.98;6.15;;;23.70;99.90;;;;;;5037254;28;20041;-73
2022/08/25 06:30:46;;;;;;;14.63;4.70;;;23.90;99.90;;;;;;5048341;28;20477;-74
2022/08/25 06:33:13;;;;;;;17.00;6.32;;;24.00;99.90;;;;;;5051266;28;20059;-74
2022/08/25 06:35:42;;;;;;;22.00;6.35;;;24.20;99.90;;;;;;5048625;28;20381;-74
2022/08/25 06:38:09;;;;;;;13.75;5.60;;;24.40;99.90;;;;;;5050145;28;20021;-73
2022/08/25 06:40:35;;;;;;;13.65;4.88;;;24.30;99.90;;;;;;5050058;28;20025;-73
2022/08/25 06:43:01;;;;;;;17.05;5.18;;;24.20;99.90;;;;;;5051143;28;20029;-73
2022/08/25 06:45:26;;;;;;;11.45;5.00;;;23.70;99.90;;;;;;5050190;28;20458;-74
2022/08/25 06:47:53;;;;;;;15.88;4.97;;;24.20;99.90;;;;;;5052825;28;20067;-74
2022/08/25 06:50:19;;;;;;;15.07;4.93;;;24.60;99.90;;;;;;5054384;28;20045;-73
2022/08/25 06:52:45;;;;;;;13.05;4.18;;;24.50;99.90;;;;;;5053340;28;20507;-78
2022/08/25 06:55:11;;;;;;;14.70;4.57;;;24.30;99.90;;;;;;5074437;28;20044;-78
2022/08/25 06:57:37;;;;;;;10.02;4.20;;;24.40;99.90;;;;;;5052653;28;20106;-80
2022/08/25 07:00:09;;;;;;;16.05;4.97;;;24.50;99.90;;;;;;5039136;28;20025;-77
2022/08/25 07:02:37;;;;;;;14.55;4.57;;;24.60;99.90;;;;;;5051421;28;20096;-79
2022/08/25 07:05:04;;;;;;;16.00;5.20;;;24.90;99.90;;;;;;5055185;28;20028;-77
2022/08/25 07:07:30;;;;;;;20.15;4.60;;;25.00;99.90;;;;;;5055071;28;20404;-78
2022/08/25 07:09:55;;;;;;;13.10;3.95;;;25.10;99.90;;;;;;5055113;28;20112;-77
2022/08/25 07:12:23;;;;;;;14.35;4.35;;;25.10;99.90;;;;;;5055006;28;20087;-77
2022/08/25 07:14:49;;;;;;;16.17;4.55;;;25.20;99.90;;;;;;5055004;28;20040;-84
2022/08/25 07:17:14;;;;;;;14.73;4.03;;;25.30;99.90;;;;;;5044414;28;20040;-75
2022/08/25 07:19:40;;;;;;;11.82;3.67;;;25.40;99.90;;;;;;5055844;28;20029;-76
2022/08/25 07:22:06;;;;;;;5.65;3.47;;;25.40;99.90;;;;;;5056029;28;20021;-77
2022/08/25 07:24:32;;;;;;;17.00;3.95;;;25.40;99.90;;;;;;5055361;28;20529;-76
2022/08/25 07:26:58;;;;;;;20.90;4.32;;;25.40;99.90;;;;;;5056229;28;20048;-76
2022/08/25 07:29:27;;;;;;;14.05;3.95;;;25.40;99.90;;;;;;5056635;28;20045;-77
2022/08/25 07:31:53;;;;;;;16.42;4.28;;;25.10;99.90;;;;;;5040930;28;20060;-76
2022/08/25 07:37:04;;;;;;;12.75;4.45;;;25.30;99.90;;;;;;5054570;28;20036;-80
2022/08/25 07:39:32;;;;;;;17.33;3.80;;;25.50;99.90;;;;;;5054067;28;20024;-77
2022/08/25 07:41:58;;;;;;;14.95;4.18;;;25.40;99.90;;;;;;5055401;28;20500;-77
2022/08/25 07:44:25;;;;;;;14.82;4.20;;;25.20;99.90;;;;;;5055414;28;20047;-77
2022/08/25 07:46:51;;;;;;;18.60;5.15;;;25.20;99.90;;;;;;5055442;28;20445;-76
2022/08/25 07:49:19;;;;;;;14.65;3.88;;;25.10;99.90;;;;;;5054138;28;20072;-75
2022/08/25 07:51:45;;;;;;;15.45;3.53;;;25.20;99.90;;;;;;5054087;28;20079;-75
2022/08/25 07:54:11;;;;;;;10.75;3.50;;;25.20;99.90;;;;;;5053841;28;20033;-76
2022/08/25 07:56:39;;;;;;;16.15;3.92;;;25.30;99.90;;;;;;5055322;28;20021;-76
2022/08/25 07:59:06;;;;;;;20.40;4.20;;;25.40;99.90;;;;;;5054333;28;20053;-75
2022/08/25 08:01:32;;;;;;;7.97;3.75;;;25.60;99.90;;;;;;5059006;28;20119;-77
2022/08/25 08:03:58;;;;;;;10.50;4.05;;;25.80;99.90;;;;;;5055461;28;20530;-75
2022/08/25 08:06:24;;;;;;;11.95;3.33;;;25.90;99.90;;;;;;5055118;28;20029;-75
2022/08/25 08:08:52;;;;;;;22.63;4.10;;;26.20;99.90;;;;;;5054509;28;20079;-80
2022/08/25 08:11:32;;;;;;;12.45;3.33;;;26.30;99.90;;;;;;5055060;28;20484;-77
2022/08/25 08:13:58;;;;;;;22.47;4.57;;;26.60;99.80;;;;;;5053612;28;20052;-76
2022/08/25 08:16:27;;;;;;;30.75;4.00;;;26.80;99.70;;;;;;5054853;28;20025;-75
2022/08/25 08:18:53;;;;;;;17.33;3.90;;;26.80;98.90;;;;;;5054766;28;20037;-75
2022/08/25 08:21:28;;;;;;;14.75;3.97;;;26.90;98.70;;;;;;5054787;28;20028;-76
2022/08/25 08:23:54;;;;;;;17.92;4.00;;;26.90;98.60;;;;;;5053114;28;20079;-76
2022/08/25 08:26:21;;;;;;;14.88;3.65;;;26.90;98.80;;;;;;5054819;28;20036;-75
2022/08/25 08:28:47;;;;;;;13.65;4.18;;;27.30;99.00;;;;;;5054649;28;20079;-80
2022/08/25 08:31:14;;;;;;;19.75;4.03;;;27.40;98.10;;;;;;5053243;28;20028;-75
2022/08/25 08:33:40;;;;;;;16.33;3.85;;;27.30;98.10;;;;;;5054797;28;20543;-80
2022/08/25 08:36:10;;;;;;;10.57;3.85;;;27.50;98.00;;;;;;5054480;28;20162;-76
2022/08/25 08:38:38;;;;;;;27.55;3.92;;;27.20;98.10;;;;;;5054063;28;20100;-80
2022/08/25 08:44:17;;;;;;;20.77;3.63;;;27.60;97.50;;;;;;5043349;28;20503;-80
2022/08/25 08:47:04;;;;;;;25.58;4.63;;;27.80;97.00;;;;;;5054330;28;20473;-80
2022/08/25 08:49:42;;;;;;;17.27;3.35;;;28.10;96.70;;;;;;5054258;28;20132;-81
2022/08/25 08:52:12;;;;;;;22.17;4.10;;;28.20;96.10;;;;;;5053975;28;20384;-80
2022/08/25 08:54:41;;;;;;;13.57;3.47;;;28.20;96.20;;;;;;5052987;28;20032;-80
2022/08/25 08:57:21;;;;;;;17.75;3.67;;;28.40;96.80;;;;;;5053951;28;20029;-80
2022/08/25 08:59:52;;;;;;;30.00;3.85;;;28.70;95.80;;;;;;5054116;28;20370;-80
2022/08/25 09:02:28;;;;;;;;;;;28.90;94.40;;;;;;5053230;28;20108;-80
2022/08/25 09:05:00;;;;;;;14.32;3.60;;;28.80;93.40;;;;;;5052804;28;19909;-81
2022/08/25 09:07:32;;;;;;;12.40;3.40;;;29.00;94.70;;;;;;5053560;28;20029;-80
2022/08/25 09:09:59;;;;;;;12.63;3.08;;;29.10;94.20;;;;;;5057438;28;20040;-79
2022/08/25 09:12:32;;;;;;;16.65;3.17;;;29.20;93.50;;;;;;5054854;28;20031;-80
2022/08/25 09:15:07;;;;;;;17.38;3.65;;;29.40;93.40;;;;;;5053733;28;20031;-81
2022/08/25 09:17:51;;;;;;;15.77;3.67;;;29.50;93.60;;;;;;5053766;28;20392;-80
2022/08/25 09:20:33;;;;;;;9.35;3.13;;;29.30;93.80;;;;;;5053409;28;20040;-80
2022/08/25 09:23:04;;;;;;;18.05;3.60;;;29.70;93.80;;;;;;5053861;28;20502;-81
2022/08/25 09:25:47;;;;;;;14.20;4.00;;;30.00;93.30;;;;;;5053597;28;20064;-81
2022/08/25 09:28:25;;;;;;;20.63;2.95;;;30.30;93.00;;;;;;5053791;28;20521;-77
2022/08/25 09:30:57;;;;;;;15.70;3.83;;;30.30;91.70;;;;;;5053209;28;20120;-75
2022/08/25 09:33:25;;;;;;;19.38;3.72;;;30.50;92.30;;;;;;5053414;28;20055;-78
2022/08/25 09:35:55;;;;;;;15.57;2.90;;;30.50;92.10;;;;;;5053103;28;20142;-77
2022/08/25 09:38:22;;;;;;;9.60;3.05;;;30.50;91.20;;;;;;5053737;28;20024;-77
2022/08/25 09:40:55;;;;;;;21.27;2.90;;;30.70;91.40;;;;;;5053404;28;20029;-79
2022/08/25 09:43:36;;;;;;;20.48;3.00;;;30.80;91.20;;;;;;5053139;28;20033;-77
2022/08/25 09:46:10;;;;;;;31.30;3.50;;;31.10;90.80;;;;;;5053239;28;20032;-80
2022/08/25 09:48:49;;;;;;;11.35;2.70;;;31.20;90.30;;;;;;5053005;28;20104;-78
2022/08/25 09:51:31;;;;;;;13.88;2.70;;;31.50;90.40;;;;;;5052905;28;20366;-78
2022/08/25 09:54:04;;;;;;;17.35;3.05;;;31.50;90.00;;;;;;5052941;28;20159;-79
2022/08/25 09:56:32;;;;;;;13.30;2.70;;;31.60;89.50;;;;;;5052607;28;20086;-77
2022/08/25 09:59:39;;;;;;;7.28;2.88;;;31.40;88.80;;;;;;5052988;28;20064;-79
2022/08/25 10:02:26;;;;;;;15.25;2.67;;;31.50;90.00;;;;;;5052386;28;20041;-79
2022/08/25 10:04:52;;;;;;;8.45;2.70;;;31.70;90.20;;;;;;5051662;28;20489;-80
2022/08/25 10:07:34;;;;;;;6.85;2.90;;;31.90;88.30;;;;;;5052756;28;20075;-77
2022/08/25 10:10:17;;;;;;;14.65;2.88;;;31.80;88.00;;;;;;5052804;28;20082;-80
2022/08/25 10:12:47;;;;;;;13.18;2.47;;;32.00;86.80;;;;;;5052840;28;20031;-78
2022/08/25 10:15:19;;;;;;;12.18;2.47;;;32.10;88.50;;;;;;5052826;28;20050;-77
2022/08/25 10:17:45;;;;;;;10.88;3.17;;;32.10;87.00;;;;;;5052633;28;20517;-78
2022/08/25 10:20:15;;;;;;;13.88;2.80;;;32.00;86.70;;;;;;5052434;28;20124;-79
2022/08/25 10:22:43;;;;;;;17.08;3.05;;;32.30;87.40;;;;;;5052203;28;20039;-78
2022/08/25 10:25:12;;;;;;;25.27;3.58;;;32.30;86.70;;;;;;5052609;28;20382;-76
2022/08/25 10:27:53;;;;;;;13.40;2.60;;;32.40;86.40;;;;;;5052564;28;20032;-77
2022/08/25 10:30:27;;;;;;;16.73;3.10;;;32.70;86.40;;;;;;5052404;28;20044;-81
2022/08/25 10:33:14;;;;;;;11.15;2.33;;;32.80;84.60;;;;;;5052464;28;20036;-76
2022/08/25 10:35:52;;;;;;;10.38;2.75;;;33.40;83.90;;;;;;5052721;28;20028;-78
2022/08/25 10:38:41;;;;;;;8.80;2.80;;;33.40;83.40;;;;;;5052260;28;20480;-78
2022/08/25 10:41:34;;;;;;;10.90;2.72;;;33.50;82.80;;;;;;5052646;28;20025;-79
2022/08/25 10:47:32;;;;;;;7.53;2.50;;;33.50;81.50;;;;;;5052202;28;20128;-77
2022/08/25 10:50:32;;;;;;;8.90;2.58;;;33.20;80.90;;;;;;5051051;28;20139;-78
2022/08/25 10:53:09;;;;;;;5.80;2.53;;;33.20;80.80;;;;;;5038912;28;20044;-77
2022/08/25 10:56:09;;;;;;;12.10;3.00;;;33.00;81.40;;;;;;5052086;28;20131;-78
2022/08/25 10:59:06;;;;;;;12.40;2.08;;;32.80;81.30;;;;;;5052128;28;20041;-78
2022/08/25 11:02:02;;;;;;;10.05;2.70;;;32.70;81.10;;;;;;5052287;28;20052;-77
2022/08/25 11:04:50;;;;;;;11.45;2.50;;;32.80;80.90;;;;;;5050955;28;20025;-78
2022/08/25 11:07:23;;;;;;;11.85;3.67;;;33.00;81.60;;;;;;5050892;28;20094;-75
2022/08/25 11:09:53;;;;;;;12.38;2.55;;;33.70;81.20;;;;;;5067431;28;20033;-76
2022/08/25 11:12:28;;;;;;;13.02;2.55;;;33.80;81.50;;;;;;5052261;28;20017;-76
2022/08/25 11:15:00;;;;;;;9.70;2.67;;;33.50;80.10;;;;;;5052129;28;20542;-78
2022/08/25 11:17:50;;;;;;;7.15;2.63;;;33.70;81.00;;;;;;5067027;28;20091;-80
2022/08/25 11:20:20;;;;;;;6.88;2.35;;;33.20;80.80;;;;;;5052217;28;20491;-77
2022/08/25 11:22:52;;;;;;;13.10;2.70;;;33.60;80.50;;;;;;5051861;28;20029;-77
2022/08/25 11:25:28;;;;;;;6.90;2.78;;;33.90;79.80;;;;;;5052025;28;20388;-76
2022/08/25 11:28:45;;;;;;;17.95;3.10;;;33.40;80.20;;;;;;5063224;28;20443;-76
2022/08/25 11:31:13;;;;;;;15.63;2.60;;;34.20;80.10;;;;;;5028629;28;20214;-77
2022/08/25 11:33:39;;;;;;;11.60;2.13;;;34.10;77.50;;;;;;5050425;28;20071;-77
2022/08/25 11:36:29;;;;;;;8.43;2.55;;;34.40;78.00;;;;;;5047421;28;21593;-77
2022/08/25 11:39:11;;;;;;;10.07;2.70;;;34.50;76.90;;;;;;5040228;28;20021;-77
2022/08/25 11:41:43;;;;;;;5.85;2.33;;;35.00;77.50;;;;;;5054561;28;20613;-76
2022/08/25 11:44:15;;;;;;;7.82;2.33;;;35.40;76.30;;;;;;5054723;28;20029;-76
2022/08/25 11:46:50;;;;;;;7.38;1.90;;;35.20;75.20;;;;;;5054152;28;20029;-77
2022/08/25 11:49:50;;;;;;;10.35;2.35;;;34.50;74.10;;;;;;5054644;28;20128;-76
2022/08/25 11:52:44;;;;;;;11.87;2.40;;;34.50;74.60;;;;;;5054458;28;20028;-77
2022/08/25 11:55:15;;;;;;;15.63;2.35;;;35.10;75.40;;;;;;5050083;28;20286;-76
2022/08/25 11:57:44;;;;;;;8.80;2.38;;;35.20;75.00;;;;;;5054575;28;20491;-77
2022/08/25 12:00:15;;;;;;;7.13;1.90;;;34.80;73.70;;;;;;5053972;28;20021;-77
2022/08/25 12:02:44;;;;;;;11.07;2.05;;;34.90;74.50;;;;;;5066960;28;20032;-76
2022/08/25 12:05:33;;;;;;;9.88;2.30;;;35.60;73.80;;;;;;5069560;28;20029;-77
2022/08/25 12:11:00;;;;;;;10.13;2.55;;;36.10;73.10;;;;;;5054615;28;20389;-76
2022/08/25 12:13:47;;;;;;;5.80;2.30;;;36.50;74.10;;;;;;5054977;28;20087;-76
2022/08/25 12:16:42;;;;;;;9.82;2.20;;;37.40;71.70;;;;;;5049754;28;20029;-76
2022/08/25 12:19:34;;;;;;;9.07;2.70;;;37.20;71.00;;;;;;5054568;28;20465;-76
2022/08/25 12:22:00;;;;;;;9.10;2.40;;;37.00;71.90;;;;;;5063081;28;20032;-77
2022/08/25 12:24:41;;;;;;;6.97;2.28;;;37.50;70.10;;;;;;5054479;28;20135;-76
2022/08/25 12:27:22;;;;;;;;;;;37.20;69.00;;;;;;5055911;28;20036;-77
2022/08/25 12:29:48;;;;;;;;;;;38.00;69.40;;;;;;5054427;28;20269;-76
2022/08/25 12:32:29;;;;;;;7.38;2.15;;;36.80;69.20;;;;;;5054732;28;19913;-76
2022/08/25 12:35:10;;;;;;;9.88;2.33;;;36.20;69.10;;;;;;5054274;28;20108;-76
2022/08/25 12:38:04;;;;;;;9.05;2.13;;;36.30;69.40;;;;;;5054891;28;20037;-76
2022/08/25 12:40:38;;;;;;;10.30;2.17;;;35.90;68.30;;;;;;5036631;28;20116;-76
2022/08/25 12:43:09;;;;;;;14.23;3.42;;;35.80;68.60;;;;;;5054080;28;20017;-76
2022/08/25 12:45:39;;;;;;;;;;;35.10;76.60;;;;;;5054336;28;20113;-75
2022/08/25 12:48:27;;;;;;;9.85;3.88;;;34.80;78.60;;;;;;5054223;28;20009;-75
2022/08/25 12:50:56;;;;;;;13.32;4.22;;;34.20;81.10;;;;;;5052886;28;20036;-75
2022/08/25 12:53:29;;;;;;;12.25;4.50;;;33.90;83.20;;;;;;5054127;28;20029;-76
2022/08/25 12:56:03;;;;;;;11.00;3.95;;;33.40;83.20;;;;;;5052720;28;20031;-75
2022/08/25 12:58:45;;;;;;;10.00;4.32;;;33.40;84.60;;;;;;5053836;28;20124;-75
2022/08/25 13:01:30;;;;;;;8.65;4.63;;;34.40;84.90;;;;;;5053776;28;20025;-75
2022/08/25 13:04:26;;;;;;;6.53;3.80;;;34.90;84.00;;;;;;5053931;28;20029;-75
2022/08/25 13:06:58;;;;;;;14.93;4.28;;;34.30;84.50;;;;;;5052290;28;20476;-76
2022/08/25 13:09:23;;;;;;;20.15;4.38;;;34.40;84.70;;;;;;5053916;28;20029;-76
2022/08/25 13:12:13;;;;;;;13.80;4.30;;;34.60;84.00;;;;;;5053755;28;20029;-76
2022/08/25 13:14:40;;;;;;;15.55;4.72;;;34.20;83.80;;;;;;5053582;28;20067;-77
2022/08/25 13:17:07;;;;;;;11.88;4.70;;;33.70;83.10;;;;;;5053558;28;20029;-76